sensor_id;sensor_type;location;lat;lon;timestamp;P1;durP1;ratioP1;P2;durP2;ratioP2
12232;SDS011;6179;51.748;8.728;2022-08-01T00:04:11;12.33;;;5.50;;
12232;SDS011;6179;51.748;8.728;2022-08-01T00:10:13;10.93;;;5.10;;
12232;SDS011;6179;51.748;8.728;2022-08-01T00:16:15;7.13;;;5.23;;
12232;SDS011;6179;51.748;8.728;2022-08-01T00:22:16;9.00;;;4.70;;
12232;SDS011;6179;51.748;8.728;2022-08-01T00:28:17;9.50;;;5.97;;
12232;SDS011;6179;51.748;8.728;2022-08-01T00:34:17;8.50;;;6.13;;
12232;SDS011;6179;51.748;8.728;2022-08-01T00:40:18;8.70;;;4.77;;
12232;SDS011;6179;51.748;8.728;2022-08-01T00:46:19;20.93;;;5.63;;
12232;SDS011;6179;51.748;8.728;2022-08-01T00:52:19;9.10;;;6.23;;
12232;SDS011;6179;51.748;8.728;2022-08-01T00:58:20;13.50;;;6.20;;
12232;SDS011;6179;51.748;8.728;2022-08-01T01:04:21;9.63;;;5.43;;
12232;SDS011;6179;51.748;8.728;2022-08-01T01:10:24;16.27;;;7.33;;
12232;SDS011;6179;51.748;8.728;2022-08-01T01:16:31;11.80;;;8.17;;
12232;SDS011;6179;51.748;8.728;2022-08-01T01:22:36;10.83;;;5.77;;
12232;SDS011;6179;51.748;8.728;2022-08-01T01:35:06;13.70;;;7.40;;
12232;SDS011;6179;51.748;8.728;2022-08-01T01:41:11;8.63;;;4.93;;
12232;SDS011;6179;51.748;8.728;2022-08-01T01:47:13;6.30;;;4.70;;
12232;SDS011;6179;51.748;8.728;2022-08-01T01:53:16;7.90;;;4.03;;
12232;SDS011;6179;51.748;8.728;2022-08-01T01:59:19;15.67;;;3.47;;
12232;SDS011;6179;51.748;8.728;2022-08-01T02:05:23;4.50;;;3.10;;
12232;SDS011;6179;51.748;8.728;2022-08-01T02:11:26;6.97;;;4.20;;
12232;SDS011;6179;51.748;8.728;2022-08-01T02:17:26;14.03;;;4.63;;
12232;SDS011;6179;51.748;8.728;2022-08-01T02:23:31;12.37;;;3.50;;
12232;SDS011;6179;51.748;8.728;2022-08-01T02:29:36;3.40;;;3.10;;
12232;SDS011;6179;51.748;8.728;2022-08-01T02:35:42;4.10;;;2.53;;
12232;SDS011;6179;51.748;8.728;2022-08-01T02:41:47;5.83;;;2.70;;
12232;SDS011;6179;51.748;8.728;2022-08-01T02:47:50;5.53;;;3.70;;
12232;SDS011;6179;51.748;8.728;2022-08-01T02:53:55;6.37;;;2.77;;
12232;SDS011;6179;51.748;8.728;2022-08-01T02:59:58;7.47;;;3.40;;
12232;SDS011;6179;51.748;8.728;2022-08-01T03:06:01;4.07;;;3.07;;
12232;SDS011;6179;51.748;8.728;2022-08-01T03:12:03;7.50;;;4.03;;
12232;SDS011;6179;51.748;8.728;2022-08-01T03:18:07;9.53;;;4.23;;
12232;SDS011;6179;51.748;8.728;2022-08-01T03:24:10;4.80;;;3.27;;
12232;SDS011;6179;51.748;8.728;2022-08-01T03:30:13;4.17;;;3.33;;
12232;SDS011;6179;51.748;8.728;2022-08-01T03:36:15;4.97;;;3.30;;
12232;SDS011;6179;51.748;8.728;2022-08-01T03:42:18;5.77;;;3.70;;
12232;SDS011;6179;51.748;8.728;2022-08-01T03:48:22;3.33;;;1.90;;
12232;SDS011;6179;51.748;8.728;2022-08-01T03:54:30;8.40;;;3.43;;
12232;SDS011;6179;51.748;8.728;2022-08-01T04:00:33;4.80;;;2.60;;
12232;SDS011;6179;51.748;8.728;2022-08-01T04:06:40;4.13;;;2.50;;
12232;SDS011;6179;51.748;8.728;2022-08-01T04:12:41;3.33;;;2.50;;
12232;SDS011;6179;51.748;8.728;2022-08-01T04:18:41;3.20;;;2.40;;
12232;SDS011;6179;51.748;8.728;2022-08-01T04:24:42;6.70;;;2.50;;
12232;SDS011;6179;51.748;8.728;2022-08-01T04:30:50;4.80;;;2.33;;
12232;SDS011;6179;51.748;8.728;2022-08-01T04:36:54;5.10;;;2.50;;
12232;SDS011;6179;51.748;8.728;2022-08-01T04:42:55;10.00;;;2.20;;
12232;SDS011;6179;51.748;8.728;2022-08-01T04:48:56;4.63;;;2.80;;
12232;SDS011;6179;51.748;8.728;2022-08-01T04:54:58;4.03;;;2.27;;
12232;SDS011;6179;51.748;8.728;2022-08-01T05:00:59;3.17;;;2.27;;
12232;SDS011;6179;51.748;8.728;2022-08-01T05:06:59;11.53;;;3.30;;
12232;SDS011;6179;51.748;8.728;2022-08-01T05:13:00;2.77;;;2.30;;
12232;SDS011;6179;51.748;8.728;2022-08-01T05:19:02;4.67;;;2.73;;
12232;SDS011;6179;51.748;8.728;2022-08-01T05:25:03;2.67;;;2.47;;
12232;SDS011;6179;51.748;8.728;2022-08-01T05:31:07;5.97;;;2.60;;
12232;SDS011;6179;51.748;8.728;2022-08-01T05:37:08;5.53;;;2.30;;
12232;SDS011;6179;51.748;8.728;2022-08-01T05:43:09;7.27;;;2.73;;
12232;SDS011;6179;51.748;8.728;2022-08-01T05:49:10;6.00;;;2.97;;
12232;SDS011;6179;51.748;8.728;2022-08-01T05:55:10;6.07;;;2.70;;
12232;SDS011;6179;51.748;8.728;2022-08-01T06:01:11;7.00;;;2.37;;
12232;SDS011;6179;51.748;8.728;2022-08-01T06:07:12;5.80;;;2.90;;
12232;SDS011;6179;51.748;8.728;2022-08-01T06:13:12;4.83;;;3.17;;
12232;SDS011;6179;51.748;8.728;2022-08-01T06:19:13;4.63;;;3.10;;
12232;SDS011;6179;51.748;8.728;2022-08-01T06:25:14;4.90;;;3.40;;
12232;SDS011;6179;51.748;8.728;2022-08-01T06:31:14;7.53;;;4.60;;
12232;SDS011;6179;51.748;8.728;2022-08-01T06:37:15;14.10;;;4.10;;
12232;SDS011;6179;51.748;8.728;2022-08-01T06:43:16;5.20;;;3.43;;
12232;SDS011;6179;51.748;8.728;2022-08-01T06:49:18;9.57;;;3.27;;
12232;SDS011;6179;51.748;8.728;2022-08-01T06:55:19;4.60;;;3.13;;
12232;SDS011;6179;51.748;8.728;2022-08-01T07:01:19;6.70;;;2.80;;
12232;SDS011;6179;51.748;8.728;2022-08-01T07:07:20;6.67;;;1.93;;
12232;SDS011;6179;51.748;8.728;2022-08-01T07:13:21;1.47;;;1.37;;
12232;SDS011;6179;51.748;8.728;2022-08-01T07:19:25;6.43;;;1.43;;
12232;SDS011;6179;51.748;8.728;2022-08-01T07:25:25;5.90;;;2.93;;
12232;SDS011;6179;51.748;8.728;2022-08-01T07:31:26;1.93;;;1.20;;
12232;SDS011;6179;51.748;8.728;2022-08-01T07:37:27;4.10;;;1.30;;
12232;SDS011;6179;51.748;8.728;2022-08-01T07:43:27;7.37;;;1.67;;
12232;SDS011;6179;51.748;8.728;2022-08-01T07:49:29;3.90;;;1.50;;
12232;SDS011;6179;51.748;8.728;2022-08-01T07:55:30;2.07;;;1.13;;
12232;SDS011;6179;51.748;8.728;2022-08-01T08:01:30;3.80;;;1.80;;
12232;SDS011;6179;51.748;8.728;2022-08-01T08:07:31;2.53;;;1.80;;
12232;SDS011;6179;51.748;8.728;2022-08-01T08:13:32;4.03;;;1.63;;
12232;SDS011;6179;51.748;8.728;2022-08-01T08:19:32;1.40;;;1.30;;
12232;SDS011;6179;51.748;8.728;2022-08-01T08:25:33;2.30;;;1.20;;
12232;SDS011;6179;51.748;8.728;2022-08-01T08:31:36;2.13;;;1.63;;
12232;SDS011;6179;51.748;8.728;2022-08-01T08:37:37;6.13;;;3.00;;
12232;SDS011;6179;51.748;8.728;2022-08-01T08:43:39;1.80;;;1.60;;
12232;SDS011;6179;51.748;8.728;2022-08-01T08:49:40;3.83;;;2.70;;
12232;SDS011;6179;51.748;8.728;2022-08-01T08:55:43;5.33;;;2.03;;
12232;SDS011;6179;51.748;8.728;2022-08-01T09:01:45;2.70;;;1.83;;
12232;SDS011;6179;51.748;8.728;2022-08-01T09:07:46;3.33;;;1.60;;
12232;SDS011;6179;51.748;8.728;2022-08-01T09:20:21;0.70;;;0.70;;
12232;SDS011;6179;51.748;8.728;2022-08-01T09:26:34;2.20;;;1.20;;
12232;SDS011;6179;51.748;8.728;2022-08-01T09:32:36;2.20;;;1.10;;
12232;SDS011;6179;51.748;8.728;2022-08-01T09:38:37;2.00;;;1.43;;
12232;SDS011;6179;51.748;8.728;2022-08-01T09:44:39;1.10;;;0.80;;
12232;SDS011;6179;51.748;8.728;2022-08-01T09:50:41;1.33;;;1.10;;
12232;SDS011;6179;51.748;8.728;2022-08-01T09:56:46;5.80;;;2.03;;
12232;SDS011;6179;51.748;8.728;2022-08-01T10:02:47;1.73;;;1.07;;
12232;SDS011;6179;51.748;8.728;2022-08-01T10:08:47;1.23;;;1.00;;
12232;SDS011;6179;51.748;8.728;2022-08-01T10:14:49;4.03;;;1.53;;
12232;SDS011;6179;51.748;8.728;2022-08-01T10:20:52;1.33;;;1.10;;
12232;SDS011;6179;51.748;8.728;2022-08-01T10:26:58;2.77;;;1.23;;
12232;SDS011;6179;51.748;8.728;2022-08-01T10:33:04;0.90;;;0.60;;
12232;SDS011;6179;51.748;8.728;2022-08-01T10:39:05;2.93;;;1.07;;
12232;SDS011;6179;51.748;8.728;2022-08-01T10:45:14;1.10;;;0.83;;
12232;SDS011;6179;51.748;8.728;2022-08-01T10:51:15;2.83;;;1.43;;
12232;SDS011;6179;51.748;8.728;2022-08-01T10:57:17;2.50;;;1.07;;
12232;SDS011;6179;51.748;8.728;2022-08-01T11:03:26;0.80;;;0.40;;
12232;SDS011;6179;51.748;8.728;2022-08-01T11:09:44;0.70;;;0.70;;
12232;SDS011;6179;51.748;8.728;2022-08-01T11:15:47;0.40;;;0.40;;
12232;SDS011;6179;51.748;8.728;2022-08-01T11:28:17;4.57;;;0.63;;
12232;SDS011;6179;51.748;8.728;2022-08-01T11:34:51;0.50;;;0.40;;
12232;SDS011;6179;51.748;8.728;2022-08-01T11:47:11;0.40;;;0.33;;
12232;SDS011;6179;51.748;8.728;2022-08-01T11:53:12;0.30;;;0.30;;
12232;SDS011;6179;51.748;8.728;2022-08-01T11:59:15;0.57;;;0.40;;
12232;SDS011;6179;51.748;8.728;2022-08-01T12:05:16;0.40;;;0.40;;
12232;SDS011;6179;51.748;8.728;2022-08-01T12:11:20;0.50;;;0.50;;
12232;SDS011;6179;51.748;8.728;2022-08-01T12:17:42;2.63;;;0.50;;
12232;SDS011;6179;51.748;8.728;2022-08-01T12:23:43;0.90;;;0.60;;
12232;SDS011;6179;51.748;8.728;2022-08-01T12:29:44;2.27;;;0.50;;
12232;SDS011;6179;51.748;8.728;2022-08-01T12:35:46;0.70;;;0.60;;
12232;SDS011;6179;51.748;8.728;2022-08-01T12:41:47;2.47;;;0.43;;
12232;SDS011;6179;51.748;8.728;2022-08-01T12:47:48;0.50;;;0.50;;
12232;SDS011;6179;51.748;8.728;2022-08-01T12:53:51;0.70;;;0.60;;
12232;SDS011;6179;51.748;8.728;2022-08-01T12:59:52;4.50;;;0.70;;
12232;SDS011;6179;51.748;8.728;2022-08-01T13:05:54;1.23;;;0.70;;
12232;SDS011;6179;51.748;8.728;2022-08-01T13:11:57;1.17;;;0.60;;
12232;SDS011;6179;51.748;8.728;2022-08-01T13:18:26;0.73;;;0.73;;
12232;SDS011;6179;51.748;8.728;2022-08-01T13:24:31;2.00;;;0.67;;
12232;SDS011;6179;51.748;8.728;2022-08-01T13:30:32;2.10;;;1.17;;
12232;SDS011;6179;51.748;8.728;2022-08-01T13:36:32;3.50;;;0.93;;
12232;SDS011;6179;51.748;8.728;2022-08-01T13:42:37;1.77;;;0.83;;
12232;SDS011;6179;51.748;8.728;2022-08-01T13:48:38;0.60;;;0.60;;
12232;SDS011;6179;51.748;8.728;2022-08-01T13:54:39;8.17;;;1.00;;
12232;SDS011;6179;51.748;8.728;2022-08-01T14:00:39;0.60;;;0.60;;
12232;SDS011;6179;51.748;8.728;2022-08-01T14:06:40;0.80;;;0.80;;
12232;SDS011;6179;51.748;8.728;2022-08-01T14:12:41;3.83;;;1.17;;
12232;SDS011;6179;51.748;8.728;2022-08-01T14:18:42;1.30;;;1.20;;
12232;SDS011;6179;51.748;8.728;2022-08-01T14:24:42;0.90;;;0.73;;
12232;SDS011;6179;51.748;8.728;2022-08-01T14:30:43;4.40;;;0.90;;
12232;SDS011;6179;51.748;8.728;2022-08-01T14:36:44;3.90;;;0.80;;
12232;SDS011;6179;51.748;8.728;2022-08-01T14:42:45;0.40;;;0.40;;
12232;SDS011;6179;51.748;8.728;2022-08-01T14:48:45;0.40;;;0.40;;
12232;SDS011;6179;51.748;8.728;2022-08-01T14:54:46;0.50;;;0.50;;
12232;SDS011;6179;51.748;8.728;2022-08-01T15:00:47;0.40;;;0.40;;
12232;SDS011;6179;51.748;8.728;2022-08-01T15:06:48;3.10;;;0.60;;
12232;SDS011;6179;51.748;8.728;2022-08-01T15:12:48;0.63;;;0.50;;
12232;SDS011;6179;51.748;8.728;2022-08-01T15:18:49;0.60;;;0.53;;
12232;SDS011;6179;51.748;8.728;2022-08-01T15:24:50;0.40;;;0.40;;
12232;SDS011;6179;51.748;8.728;2022-08-01T15:30:51;0.80;;;0.40;;
12232;SDS011;6179;51.748;8.728;2022-08-01T15:36:52;0.40;;;0.40;;
12232;SDS011;6179;51.748;8.728;2022-08-01T15:42:53;0.50;;;0.50;;
12232;SDS011;6179;51.748;8.728;2022-08-01T15:48:53;0.60;;;0.50;;
12232;SDS011;6179;51.748;8.728;2022-08-01T15:54:54;2.50;;;0.50;;
12232;SDS011;6179;51.748;8.728;2022-08-01T16:00:55;1.80;;;0.80;;
12232;SDS011;6179;51.748;8.728;2022-08-01T16:06:55;1.40;;;0.60;;
12232;SDS011;6179;51.748;8.728;2022-08-01T16:12:56;2.53;;;0.53;;
12232;SDS011;6179;51.748;8.728;2022-08-01T16:18:57;1.07;;;0.80;;
12232;SDS011;6179;51.748;8.728;2022-08-01T16:24:57;2.00;;;0.90;;
12232;SDS011;6179;51.748;8.728;2022-08-01T16:30:58;0.77;;;0.70;;
12232;SDS011;6179;51.748;8.728;2022-08-01T16:36:59;1.03;;;0.73;;
12232;SDS011;6179;51.748;8.728;2022-08-01T16:42:59;1.00;;;0.80;;
12232;SDS011;6179;51.748;8.728;2022-08-01T16:49:00;0.70;;;0.70;;
12232;SDS011;6179;51.748;8.728;2022-08-01T16:55:01;0.70;;;0.60;;
12232;SDS011;6179;51.748;8.728;2022-08-01T17:01:02;0.90;;;0.90;;
12232;SDS011;6179;51.748;8.728;2022-08-01T17:07:02;1.90;;;0.80;;
12232;SDS011;6179;51.748;8.728;2022-08-01T17:13:03;0.97;;;0.80;;
12232;SDS011;6179;51.748;8.728;2022-08-01T17:19:05;0.80;;;0.80;;
12232;SDS011;6179;51.748;8.728;2022-08-01T17:25:05;4.77;;;1.50;;
12232;SDS011;6179;51.748;8.728;2022-08-01T17:31:06;1.50;;;1.40;;
12232;SDS011;6179;51.748;8.728;2022-08-01T17:37:07;2.20;;;0.70;;
12232;SDS011;6179;51.748;8.728;2022-08-01T17:43:08;0.73;;;0.60;;
12232;SDS011;6179;51.748;8.728;2022-08-01T17:49:09;0.73;;;0.70;;
12232;SDS011;6179;51.748;8.728;2022-08-01T17:55:10;0.97;;;0.90;;
12232;SDS011;6179;51.748;8.728;2022-08-01T18:01:11;2.27;;;1.33;;
12232;SDS011;6179;51.748;8.728;2022-08-01T18:07:12;3.47;;;1.80;;
12232;SDS011;6179;51.748;8.728;2022-08-01T18:13:14;1.77;;;1.00;;
12232;SDS011;6179;51.748;8.728;2022-08-01T18:19:17;1.13;;;1.10;;
12232;SDS011;6179;51.748;8.728;2022-08-01T18:25:19;2.20;;;1.37;;
12232;SDS011;6179;51.748;8.728;2022-08-01T18:31:22;1.90;;;1.50;;
12232;SDS011;6179;51.748;8.728;2022-08-01T18:37:26;1.40;;;0.90;;
12232;SDS011;6179;51.748;8.728;2022-08-01T18:43:27;1.50;;;1.40;;
12232;SDS011;6179;51.748;8.728;2022-08-01T18:49:28;1.10;;;1.00;;
12232;SDS011;6179;51.748;8.728;2022-08-01T18:55:29;1.27;;;1.17;;
12232;SDS011;6179;51.748;8.728;2022-08-01T19:01:29;8.70;;;1.80;;
12232;SDS011;6179;51.748;8.728;2022-08-01T19:07:30;1.90;;;1.53;;
12232;SDS011;6179;51.748;8.728;2022-08-01T19:13:32;1.00;;;0.90;;
12232;SDS011;6179;51.748;8.728;2022-08-01T19:19:33;1.27;;;1.17;;
12232;SDS011;6179;51.748;8.728;2022-08-01T19:25:35;4.97;;;1.40;;
12232;SDS011;6179;51.748;8.728;2022-08-01T19:31:38;1.67;;;1.57;;
12232;SDS011;6179;51.748;8.728;2022-08-01T19:37:40;3.43;;;1.50;;
12232;SDS011;6179;51.748;8.728;2022-08-01T19:43:46;1.53;;;1.43;;
12232;SDS011;6179;51.748;8.728;2022-08-01T19:49:49;1.50;;;1.37;;
12232;SDS011;6179;51.748;8.728;2022-08-01T19:55:50;1.97;;;1.50;;
12232;SDS011;6179;51.748;8.728;2022-08-01T20:01:51;1.77;;;1.67;;
12232;SDS011;6179;51.748;8.728;2022-08-01T20:07:53;3.43;;;1.77;;
12232;SDS011;6179;51.748;8.728;2022-08-01T20:13:54;4.10;;;2.20;;
12232;SDS011;6179;51.748;8.728;2022-08-01T20:19:56;2.03;;;1.40;;
12232;SDS011;6179;51.748;8.728;2022-08-01T20:25:56;2.07;;;1.67;;
12232;SDS011;6179;51.748;8.728;2022-08-01T20:31:58;2.50;;;2.00;;
12232;SDS011;6179;51.748;8.728;2022-08-01T20:38:00;3.17;;;2.20;;
12232;SDS011;6179;51.748;8.728;2022-08-01T20:44:01;6.87;;;2.00;;
12232;SDS011;6179;51.748;8.728;2022-08-01T20:50:03;6.73;;;2.40;;
12232;SDS011;6179;51.748;8.728;2022-08-01T21:03:07;2.27;;;2.07;;
12232;SDS011;6179;51.748;8.728;2022-08-01T21:09:16;9.80;;;1.90;;
12232;SDS011;6179;51.748;8.728;2022-08-01T21:21:31;14.50;;;2.30;;
12232;SDS011;6179;51.748;8.728;2022-08-01T21:27:35;2.90;;;2.33;;
12232;SDS011;6179;51.748;8.728;2022-08-01T21:33:38;2.50;;;2.30;;
12232;SDS011;6179;51.748;8.728;2022-08-01T21:39:39;2.93;;;1.83;;
12232;SDS011;6179;51.748;8.728;2022-08-01T21:45:49;6.90;;;3.00;;
12232;SDS011;6179;51.748;8.728;2022-08-01T21:51:52;2.90;;;2.50;;
12232;SDS011;6179;51.748;8.728;2022-08-01T21:57:56;3.03;;;2.10;;
12232;SDS011;6179;51.748;8.728;2022-08-01T22:04:01;3.37;;;3.07;;
12232;SDS011;6179;51.748;8.728;2022-08-01T22:10:03;3.17;;;2.87;;
12232;SDS011;6179;51.748;8.728;2022-08-01T22:16:05;4.10;;;2.97;;
12232;SDS011;6179;51.748;8.728;2022-08-01T22:22:08;4.60;;;2.70;;
12232;SDS011;6179;51.748;8.728;2022-08-01T22:28:10;2.87;;;2.30;;
12232;SDS011;6179;51.748;8.728;2022-08-01T22:34:16;5.87;;;3.37;;
12232;SDS011;6179;51.748;8.728;2022-08-01T22:40:17;10.93;;;3.63;;
12232;SDS011;6179;51.748;8.728;2022-08-01T22:46:32;7.43;;;4.07;;
12232;SDS011;6179;51.748;8.728;2022-08-01T22:52:41;3.93;;;3.53;;
12232;SDS011;6179;51.748;8.728;2022-08-01T22:58:49;19.50;;;3.30;;
12232;SDS011;6179;51.748;8.728;2022-08-01T23:04:51;10.80;;;2.50;;
12232;SDS011;6179;51.748;8.728;2022-08-01T23:11:04;6.10;;;2.67;;
12232;SDS011;6179;51.748;8.728;2022-08-01T23:17:05;5.27;;;2.97;;
12232;SDS011;6179;51.748;8.728;2022-08-01T23:23:07;5.30;;;3.07;;
12232;SDS011;6179;51.748;8.728;2022-08-01T23:29:09;3.70;;;2.37;;
12232;SDS011;6179;51.748;8.728;2022-08-01T23:35:10;4.33;;;2.80;;
12232;SDS011;6179;51.748;8.728;2022-08-01T23:41:11;6.97;;;4.00;;
12232;SDS011;6179;51.748;8.728;2022-08-01T23:47:15;8.03;;;3.53;;
12232;SDS011;6179;51.748;8.728;2022-08-01T23:53:15;10.40;;;3.30;;
12232;SDS011;6179;51.748;8.728;2022-08-01T23:59:16;5.80;;;3.13;;
